Big Bear Station Historical Data
Daily Summary for April 19, 2019 Units:  Metric    English   Both
Next Day »
Daily Weekly Monthly Yearly Custom
  High: Low: Average:
Temperature: 22.2 °C 1.2 °C 10.6 °C
Dew Point: 5.9 °C -3.5 °C 1.4 °C
Humidity: 88% 26% 58%
Wind Speed: 10.1km/h 0km/h 1.6km/h
Wind Gust: -1607.7km/h - -
Wind- - SSW
Pressure: 800.5 hPa 793.7 hPa -
Precipitation: 0 mm    
Historical Graphs
 
 
Tabular Data for April 19, 2019
Time Temperature Dew Point Pressure Wind Wind Speed Wind Gust Humidity Rainfall Rate (Hourly)
00:11 5 °C 0.7 °C 800.5 hPa Calm   -1607.7 km/h 74% 0 mm
00:26 4.8 °C 0.6 °C 800.5 hPa Calm   -1607.7 km/h 74% 0 mm
00:42 4.5 °C 0.3 °C 800.5 hPa Calm   -1607.7 km/h 74% 0 mm
00:57 4.2 °C 0.4 °C 800.5 hPa Calm   -1607.7 km/h 76% 0 mm
01:12 4.1 °C 0.4 °C 800.5 hPa Calm   -1607.7 km/h 77% 0 mm
01:27 4 °C 0.3 °C 800.1 hPa Calm   -1607.7 km/h 77% 0 mm
01:42 3.7 °C 0.2 °C 800.1 hPa Calm   -1607.7 km/h 78% 0 mm
01:58 3.6 °C 0.3 °C 799.8 hPa Calm   -1607.7 km/h 79% 0 mm
02:13 3.6 °C 0.5 °C 799.8 hPa Calm   -1607.7 km/h 80% 0 mm
02:28 3.3 °C 0.3 °C 799.4 hPa Calm   -1607.7 km/h 81% 0 mm
02:43 3.1 °C 0.2 °C 799.4 hPa Calm   -1607.7 km/h 81% 0 mm
02:59 2.9 °C -0.1 °C 799.4 hPa Calm   -1607.7 km/h 81% 0 mm
03:14 2.8 °C -0.2 °C 799.1 hPa Calm   -1607.7 km/h 81% 0 mm
03:29 2.7 °C 0.1 °C 798.8 hPa Calm   -1607.7 km/h 83% 0 mm
03:44 2.4 °C -0.1 °C 798.8 hPa Calm   -1607.7 km/h 84% 0 mm
03:59 2.3 °C 0 °C 798.8 hPa Calm   -1607.7 km/h 85% 0 mm
04:15 2.3 °C 0.3 °C 798.8 hPa Calm   -1607.7 km/h 87% 0 mm
04:30 1.9 °C 0.1 °C 798.4 hPa Calm   -1607.7 km/h 88% 0 mm
04:45 1.9 °C -0.1 °C 798.4 hPa Calm   -1607.7 km/h 87% 0 mm
05:00 1.8 °C -0.3 °C 798.4 hPa Calm   -1607.7 km/h 86% 0 mm
05:15 1.5 °C -0.4 °C 798.4 hPa Calm   -1607.7 km/h 87% 0 mm
05:31 1.4 °C -0.6 °C 798.4 hPa Calm   -1607.7 km/h 87% 0 mm
05:46 1.4 °C -0.7 °C 798.4 hPa Calm   -1607.7 km/h 86% 0 mm
06:01 1.2 °C -0.7 °C 798.4 hPa Calm   -1607.7 km/h 87% 0 mm
06:16 1.4 °C -0.4 °C 798.1 hPa Calm   -1607.7 km/h 88% 0 mm
06:31 1.4 °C -0.6 °C 798.1 hPa Calm   -1607.7 km/h 87% 0 mm
06:47 1.2 °C -0.7 °C 798.1 hPa Calm   -1607.7 km/h 87% 0 mm
07:02 1.6 °C -0.3 °C 798.4 hPa Calm   -1607.7 km/h 87% 0 mm
07:17 2.1 °C 0 °C 798.4 hPa Calm   -1607.7 km/h 86% 0 mm
07:32 2.1 °C 0 °C 798.4 hPa Calm   -1607.7 km/h 86% 0 mm
07:47 2.8 °C 0.5 °C 798.4 hPa Calm   -1607.7 km/h 85% 0 mm
08:03 3.5 °C 1.1 °C 798.4 hPa Calm   -1607.7 km/h 84% 0 mm
08:18 4 °C 0.5 °C 798.4 hPa Calm   -1607.7 km/h 78% 0 mm
08:33 4.9 °C 1.9 °C 798.4 hPa Calm   -1607.7 km/h 81% 0 mm
08:48 6.3 °C 2 °C 798.4 hPa Calm   -1607.7 km/h 74% 0 mm
09:04 8 °C 1.6 °C 798.1 hPa Calm   -1607.7 km/h 64% 0 mm
09:19 11.2 °C 3.3 °C 798.1 hPa Calm   -1607.7 km/h 58% 0 mm
09:34 12.1 °C 1.1 °C 798.1 hPa Calm   -1607.7 km/h 47% 0 mm
09:49 14 °C 0.3 °C 798.1 hPa Calm   -1607.7 km/h 39% 0 mm
10:04 14.9 °C -3.5 °C 797.7 hPa Calm   -1607.7 km/h 28% 0 mm
10:20 16.2 °C -2.8 °C 797.7 hPa NW 7.6 km/h -1607.7 km/h 27% 0 mm
11:51 20.8 °C 0.6 °C 797.1 hPa WNW 7.6 km/h -1607.7 km/h 26% 0 mm
12:06 20.8 °C 1.1 °C 797.1 hPa NNW 9.3 km/h -1607.7 km/h 27% 0 mm
12:22 21.1 °C 2.8 °C 797.1 hPa NNW 6 km/h -1607.7 km/h 30% 0 mm
12:37 22.2 °C 3.8 °C 797.1 hPa NNE 4.3 km/h -1607.7 km/h 30% 0 mm
12:52 21.9 °C 2.6 °C 797.1 hPa NW 2.7 km/h -1607.7 km/h 28% 0 mm
13:08 19.9 °C 0.3 °C 796.7 hPa Calm   -1607.7 km/h 27% 0 mm
13:23 21.4 °C 1.6 °C 796.7 hPa SSW 3.5 km/h -1607.7 km/h 27% 0 mm
13:38 21.1 °C 0.8 °C 796.7 hPa SSW 10.1 km/h -1607.7 km/h 26% 0 mm
13:53 21.7 °C 1.4 °C 796.4 hPa SSW 3.5 km/h -1607.7 km/h 26% 0 mm
14:09 21 °C 1.8 °C 796.4 hPa NW 10.1 km/h -1607.7 km/h 28% 0 mm
14:24 20.8 °C 1.6 °C 796.4 hPa SSW 7.6 km/h -1607.7 km/h 28% 0 mm
14:39 19.5 °C 1.4 °C 796.4 hPa Calm   -1607.7 km/h 30% 0 mm
14:54 20 °C 1.9 °C 796 hPa Calm   -1607.7 km/h 30% 0 mm
15:10 20.9 °C 2.7 °C 796 hPa ENE 3.5 km/h -1607.7 km/h 30% 0 mm
15:40 21 °C 2.8 °C 795.7 hPa ESE 4.3 km/h -1607.7 km/h 30% 0 mm
15:55 19.5 °C 2.4 °C 795.4 hPa South 3.5 km/h -1607.7 km/h 32% 0 mm
16:10 19.7 °C 3 °C 795.4 hPa NNW 4.3 km/h -1607.7 km/h 33% 0 mm
16:26 19 °C 3.6 °C 795 hPa ESE 2.7 km/h -1607.7 km/h 36% 0 mm
16:41 19.9 °C 4.8 °C 795 hPa NW 5.1 km/h -1607.7 km/h 37% 0 mm
16:56 19.8 °C 5.1 °C 795 hPa SE 3.5 km/h -1607.7 km/h 38% 0 mm
17:12 20.6 °C 5.8 °C 795 hPa North 2.7 km/h -1607.7 km/h 38% 0 mm
17:27 20.8 °C 5.9 °C 794.7 hPa SE 7.6 km/h -1607.7 km/h 38% 0 mm
17:42 19.4 °C 5.8 °C 794.7 hPa South 6 km/h -1607.7 km/h 41% 0 mm
17:58 19.6 °C 5.3 °C 794.7 hPa SW 2.7 km/h -1607.7 km/h 39% 0 mm
18:14 18.7 °C 5.6 °C 794.7 hPa East 2.7 km/h -1607.7 km/h 42% 0 mm
18:29 17.4 °C 5 °C 794.4 hPa SSE 6 km/h -1607.7 km/h 44% 0 mm
18:44 15.7 °C 4.7 °C 794.4 hPa ESE 2.7 km/h -1607.7 km/h 48% 0 mm
19:00 14.5 °C 4.5 °C 794.4 hPa Calm   -1607.7 km/h 51% 0 mm
19:15 13.9 °C 3.9 °C 794 hPa Calm   -1607.7 km/h 51% 0 mm
19:30 12.8 °C 2.9 °C 794 hPa Calm   -1607.7 km/h 51% 0 mm
19:45 12.4 °C 2.3 °C 794 hPa SSE 5.1 km/h -1607.7 km/h 50% 0 mm
20:00 11.8 °C 2.2 °C 794 hPa Calm   -1607.7 km/h 52% 0 mm
20:16 11.5 °C 2 °C 794 hPa Calm   -1607.7 km/h 52% 0 mm
20:31 11.3 °C 0.7 °C 794.4 hPa Calm   -1607.7 km/h 48% 0 mm
20:46 11 °C -0.5 °C 794.4 hPa Calm   -1607.7 km/h 45% 0 mm
21:01 10.7 °C -0.2 °C 794.4 hPa Calm   -1607.7 km/h 47% 0 mm
21:16 10.4 °C -0.7 °C 794.4 hPa Calm   -1607.7 km/h 46% 0 mm
21:32 10.4 °C -0.7 °C 794.4 hPa Calm   -1607.7 km/h 46% 0 mm
21:47 9.8 °C 2.2 °C 794.4 hPa Calm   -1607.7 km/h 59% 0 mm
22:02 9.3 °C 2.4 °C 794.4 hPa Calm   -1607.7 km/h 62% 0 mm
22:17 9 °C 4.6 °C 794.4 hPa Calm   -1607.7 km/h 74% 0 mm
22:32 8.7 °C 4.7 °C 794 hPa Calm   -1607.7 km/h 76% 0 mm
22:48 8.8 °C 2.8 °C 794 hPa Calm   -1607.7 km/h 66% 0 mm
23:03 8.6 °C 0.6 °C 794 hPa Calm   -1607.7 km/h 57% 0 mm
23:18 8.3 °C -0.5 °C 794 hPa Calm   -1607.7 km/h 54% 0 mm
23:33 8.1 °C -0.7 °C 794 hPa Calm   -1607.7 km/h 54% 0 mm
23:48 8.2 °C -0.8 °C 793.7 hPa Calm   -1607.7 km/h 53% 0 mm
Big Bear CA Weather